PWSweather.com
Personal Weather Stations
Station Observations
SUBOTICARS
SuboticaYU

SuboticaYU

Lat: 46.1296717, Lon: 19.641551

Elevation: 361

Station Type: Nexus

http://sumeteo.info

High Low Average
Temperature 74.4°F23.6°C 43.0°F6.1°C 57.3°F14.1°C
Dew Point 46.3°F7.9°C 31.2°F-0.4°C 39.1°F3.9°C
Winds 11.5 mph 18.5 kmh Calm Calm 3.0 mph ESE4.8 kmh ESE
Wind Gusts 13.8 mph22.2 kmh -- 4.0 mph6.4 kmh
Humidity 66% 33% 52%
Pressure 29.88 in1011.9 mb 29.82 in1009.8 mb -
Precipitation 0.00 in0.0 mm - -
Hour Temp Dew Point Humidity Winds Wind Gusts Pressure Precip Precip Rate Daily Precip Total
12:00 AM 43.3°F6.3°C 31.6°F-0.2°C 63% Calm Calm -- 29.86 in1011.2 mb - 0.00 in0.0 mm 0.00 in0.0 mm
12:10 AM 43.3°F6.3°C 31.2°F-0.4°C 62% Calm Calm -- 29.86 in1011.2 mb - 0.00 in0.0 mm 0.00 in0.0 mm
12:15 AM 43.2°F6.2°C 31.4°F-0.3°C 63% Calm Calm 1.2 mph1.9 kmh 29.86 in1011.2 mb - 0.00 in0.0 mm 0.00 in0.0 mm
12:20 AM 43.0°F6.1°C 31.2°F-0.4°C 63% Calm Calm -- 29.86 in1011.2 mb - 0.00 in0.0 mm 0.00 in0.0 mm
12:25 AM 43.0°F6.1°C 31.2°F-0.4°C 63% Calm Calm -- 29.86 in1011.2 mb - 0.00 in0.0 mm 0.00 in0.0 mm
12:30 AM 43.0°F6.1°C 31.2°F-0.4°C 63% Calm Calm -- 29.86 in1011.2 mb - 0.00 in0.0 mm 0.00 in0.0 mm
12:35 AM 43.3°F6.3°C 32.0°F0.0°C 64% Calm Calm -- 29.86 in1011.2 mb - 0.00 in0.0 mm 0.00 in0.0 mm
12:40 AM 43.5°F6.4°C 31.8°F-0.1°C 63% Calm Calm -- 29.86 in1011.2 mb - 0.00 in0.0 mm 0.00 in0.0 mm
12:45 AM 43.7°F6.5°C 32.3°F0.2°C 64% Calm Calm -- 29.86 in1011.2 mb - 0.00 in0.0 mm 0.00 in0.0 mm
12:50 AM 43.7°F6.5°C 31.9°F-0.1°C 63% 1.2 mph ESE1.9 kmh ESE 1.2 mph1.9 kmh 29.86 in1011.2 mb - 0.00 in0.0 mm 0.00 in0.0 mm
12:55 AM 44.6°F7.0°C 32.8°F0.4°C 63% 1.2 mph ESE1.9 kmh ESE 1.2 mph1.9 kmh 29.86 in1011.2 mb - 0.00 in0.0 mm 0.00 in0.0 mm
01:00 AM 45.4°F7.4°C 33.2°F0.7°C 62% 1.2 mph ESE1.9 kmh ESE 2.3 mph3.7 kmh 29.86 in1011.2 mb - 0.00 in0.0 mm 0.00 in0.0 mm
01:10 AM 45.5°F7.5°C 33.2°F0.7°C 62% 1.2 mph ENE1.9 kmh ENE 1.2 mph1.9 kmh 29.86 in1011.2 mb - 0.00 in0.0 mm 0.00 in0.0 mm
01:15 AM 45.7°F7.6°C 33.4°F0.8°C 62% 1.2 mph E1.9 kmh E 1.2 mph1.9 kmh 29.86 in1011.2 mb - 0.00 in0.0 mm 0.00 in0.0 mm
01:20 AM 45.9°F7.7°C 33.6°F0.9°C 62% Calm Calm -- 29.86 in1011.2 mb - 0.00 in0.0 mm 0.00 in0.0 mm
01:25 AM 45.9°F7.7°C 33.6°F0.9°C 62% 1.2 mph ESE1.9 kmh ESE 2.3 mph3.7 kmh 29.86 in1011.2 mb - 0.00 in0.0 mm 0.00 in0.0 mm
01:30 AM 45.5°F7.5°C 33.2°F0.7°C 62% Calm Calm -- 29.85 in1010.8 mb - 0.00 in0.0 mm 0.00 in0.0 mm
01:35 AM 45.3°F7.4°C 33.1°F0.6°C 62% Calm Calm 1.2 mph1.9 kmh 29.85 in1010.8 mb - 0.00 in0.0 mm 0.00 in0.0 mm
01:40 AM 45.5°F7.5°C 33.2°F0.7°C 62% Calm Calm -- 29.85 in1010.8 mb - 0.00 in0.0 mm 0.00 in0.0 mm
01:45 AM 46.0°F7.8°C 33.7°F0.9°C 62% 1.2 mph E1.9 kmh E 1.2 mph1.9 kmh 29.85 in1010.8 mb - 0.00 in0.0 mm 0.00 in0.0 mm
01:50 AM 46.0°F7.8°C 33.7°F0.9°C 62% 1.2 mph ESE1.9 kmh ESE 1.2 mph1.9 kmh 29.85 in1010.8 mb - 0.00 in0.0 mm 0.00 in0.0 mm
01:55 AM 46.0°F7.8°C 33.3°F0.7°C 61% Calm Calm 1.2 mph1.9 kmh 29.85 in1010.8 mb - 0.00 in0.0 mm 0.00 in0.0 mm
02:00 AM 46.0°F7.8°C 33.3°F0.7°C 61% Calm Calm 1.2 mph1.9 kmh 29.86 in1011.2 mb - 0.00 in0.0 mm 0.00 in0.0 mm
02:10 AM 46.2°F7.9°C 33.5°F0.8°C 61% Calm Calm -- 29.86 in1011.2 mb - 0.00 in0.0 mm 0.00 in0.0 mm
02:15 AM 46.2°F7.9°C 33.5°F0.8°C 61% Calm Calm -- 29.85 in1010.8 mb - 0.00 in0.0 mm 0.00 in0.0 mm
02:20 AM 46.2°F7.9°C 33.5°F0.8°C 61% Calm Calm -- 29.85 in1010.8 mb - 0.00 in0.0 mm 0.00 in0.0 mm
02:25 AM 46.1°F7.8°C 33.4°F0.8°C 61% Calm Calm -- 29.85 in1010.8 mb - 0.00 in0.0 mm 0.00 in0.0 mm
02:30 AM 45.9°F7.7°C 33.6°F0.9°C 62% 2.3 mph E3.7 kmh E 2.3 mph3.7 kmh 29.85 in1010.8 mb - 0.00 in0.0 mm 0.00 in0.0 mm
02:35 AM 46.3°F7.9°C 33.6°F0.9°C 61% 2.3 mph E3.7 kmh E 2.3 mph3.7 kmh 29.85 in1010.8 mb - 0.00 in0.0 mm 0.00 in0.0 mm
02:40 AM 47.3°F8.5°C 34.1°F1.2°C 60% 2.3 mph E3.7 kmh E 3.5 mph5.6 kmh 29.85 in1010.8 mb - 0.00 in0.0 mm 0.00 in0.0 mm
02:45 AM 48.0°F8.9°C 34.8°F1.6°C 60% 2.3 mph SE3.7 kmh SE 3.5 mph5.6 kmh 29.84 in1010.5 mb - 0.00 in0.0 mm 0.00 in0.0 mm
02:50 AM 48.6°F9.2°C 35.3°F1.8°C 60% 2.3 mph ENE3.7 kmh ENE 2.3 mph3.7 kmh 29.84 in1010.5 mb - 0.00 in0.0 mm 0.00 in0.0 mm
02:55 AM 48.9°F9.4°C 35.6°F2.0°C 60% 2.3 mph NE3.7 kmh NE 2.3 mph3.7 kmh 29.84 in1010.5 mb - 0.00 in0.0 mm 0.00 in0.0 mm
03:00 AM 48.9°F9.4°C 35.6°F2.0°C 60% 2.3 mph ESE3.7 kmh ESE 2.3 mph3.7 kmh 29.85 in1010.8 mb - 0.00 in0.0 mm 0.00 in0.0 mm
03:10 AM 48.4°F9.1°C 34.7°F1.5°C 59% 2.3 mph ESE3.7 kmh ESE 3.5 mph5.6 kmh 29.85 in1010.8 mb - 0.00 in0.0 mm 0.00 in0.0 mm
03:15 AM 48.4°F9.1°C 34.7°F1.5°C 59% 2.3 mph E3.7 kmh E 3.5 mph5.6 kmh 29.84 in1010.5 mb - 0.00 in0.0 mm 0.00 in0.0 mm
03:20 AM 48.6°F9.2°C 34.9°F1.6°C 59% 3.5 mph E5.6 kmh E 3.5 mph5.6 kmh 29.84 in1010.5 mb - 0.00 in0.0 mm 0.00 in0.0 mm
03:25 AM 48.9°F9.4°C 34.8°F1.6°C 58% 2.3 mph E3.7 kmh E 3.5 mph5.6 kmh 29.84 in1010.5 mb - 0.00 in0.0 mm 0.00 in0.0 mm
03:30 AM 49.1°F9.5°C 34.9°F1.6°C 58% 2.3 mph ESE3.7 kmh ESE 3.5 mph5.6 kmh 29.83 in1010.2 mb - 0.00 in0.0 mm 0.00 in0.0 mm
03:35 AM 49.1°F9.5°C 35.0°F1.7°C 58% 2.3 mph ESE3.7 kmh ESE 2.3 mph3.7 kmh 29.83 in1010.2 mb - 0.00 in0.0 mm 0.00 in0.0 mm
03:40 AM 49.3°F9.6°C 35.1°F1.7°C 58% 2.3 mph E3.7 kmh E 3.5 mph5.6 kmh 29.83 in1010.2 mb - 0.00 in0.0 mm 0.00 in0.0 mm
03:45 AM 49.1°F9.5°C 34.9°F1.6°C 58% 2.3 mph ESE3.7 kmh ESE 2.3 mph3.7 kmh 29.84 in1010.5 mb - 0.00 in0.0 mm 0.00 in0.0 mm
03:50 AM 49.1°F9.5°C 34.9°F1.6°C 58% 2.3 mph E3.7 kmh E 3.5 mph5.6 kmh 29.84 in1010.5 mb - 0.00 in0.0 mm 0.00 in0.0 mm
03:55 AM 49.3°F9.6°C 34.7°F1.5°C 57% 2.3 mph E3.7 kmh E 2.3 mph3.7 kmh 29.84 in1010.5 mb - 0.00 in0.0 mm 0.00 in0.0 mm
04:00 AM 49.1°F9.5°C 34.9°F1.6°C 58% 2.3 mph E3.7 kmh E 3.5 mph5.6 kmh 29.84 in1010.5 mb - 0.00 in0.0 mm 0.00 in0.0 mm
04:10 AM 48.9°F9.4°C 34.3°F1.3°C 57% 2.3 mph ENE3.7 kmh ENE 2.3 mph3.7 kmh 29.84 in1010.5 mb - 0.00 in0.0 mm 0.00 in0.0 mm
04:15 AM 48.7°F9.3°C 34.2°F1.2°C 57% 1.2 mph E1.9 kmh E 2.3 mph3.7 kmh 29.85 in1010.8 mb - 0.00 in0.0 mm 0.00 in0.0 mm
04:20 AM 48.6°F9.2°C 34.4°F1.3°C 58% 1.2 mph ESE1.9 kmh ESE 2.3 mph3.7 kmh 29.85 in1010.8 mb - 0.00 in0.0 mm 0.00 in0.0 mm
04:25 AM 48.3°F9.1°C 34.2°F1.2°C 58% 1.2 mph SSE1.9 kmh SSE 1.2 mph1.9 kmh 29.85 in1010.8 mb - 0.00 in0.0 mm 0.00 in0.0 mm
04:30 AM 47.8°F8.8°C 33.7°F0.9°C 58% 1.2 mph ESE1.9 kmh ESE 2.3 mph3.7 kmh 29.85 in1010.8 mb - 0.00 in0.0 mm 0.00 in0.0 mm
04:35 AM 47.3°F8.5°C 33.3°F0.7°C 58% 1.2 mph ESE1.9 kmh ESE 2.3 mph3.7 kmh 29.85 in1010.8 mb - 0.00 in0.0 mm 0.00 in0.0 mm
04:40 AM 47.5°F8.6°C 33.4°F0.8°C 58% 2.3 mph ESE3.7 kmh ESE 3.5 mph5.6 kmh 29.85 in1010.8 mb - 0.00 in0.0 mm 0.00 in0.0 mm
04:45 AM 47.5°F8.6°C 33.4°F0.8°C 58% 1.2 mph E1.9 kmh E 1.2 mph1.9 kmh 29.84 in1010.5 mb - 0.00 in0.0 mm 0.00 in0.0 mm
04:50 AM 47.5°F8.6°C 33.8°F1.0°C 59% 1.2 mph E1.9 kmh E 1.2 mph1.9 kmh 29.84 in1010.5 mb - 0.00 in0.0 mm 0.00 in0.0 mm
04:55 AM 47.4°F8.6°C 33.7°F0.9°C 59% Calm Calm 1.2 mph1.9 kmh 29.84 in1010.5 mb - 0.00 in0.0 mm 0.00 in0.0 mm
05:00 AM 47.1°F8.4°C 33.9°F1.1°C 60% Calm Calm 1.2 mph1.9 kmh 29.85 in1010.8 mb - 0.00 in0.0 mm 0.00 in0.0 mm
05:10 AM 46.4°F8.0°C 33.3°F0.7°C 60% Calm Calm -- 29.85 in1010.8 mb - 0.00 in0.0 mm 0.00 in0.0 mm
05:15 AM 46.2°F7.9°C 33.1°F0.6°C 60% Calm Calm -- 29.85 in1010.8 mb - 0.00 in0.0 mm 0.00 in0.0 mm
05:20 AM 46.0°F7.8°C 33.3°F0.7°C 61% Calm Calm -- 29.85 in1010.8 mb - 0.00 in0.0 mm 0.00 in0.0 mm
05:25 AM 45.9°F7.7°C 33.2°F0.7°C 61% 1.2 mph ESE1.9 kmh ESE 1.2 mph1.9 kmh 29.85 in1010.8 mb - 0.00 in0.0 mm 0.00 in0.0 mm
05:30 AM 45.9°F7.7°C 33.2°F0.7°C 61% 1.2 mph ESE1.9 kmh ESE 1.2 mph1.9 kmh 29.84 in1010.5 mb - 0.00 in0.0 mm 0.00 in0.0 mm
05:35 AM 46.0°F7.8°C 33.3°F0.7°C 61% 1.2 mph ESE1.9 kmh ESE 1.2 mph1.9 kmh 29.84 in1010.5 mb - 0.00 in0.0 mm 0.00 in0.0 mm
05:40 AM 46.0°F7.8°C 33.3°F0.7°C 61% 1.2 mph E1.9 kmh E 1.2 mph1.9 kmh 29.84 in1010.5 mb - 0.00 in0.0 mm 0.00 in0.0 mm
05:45 AM 46.0°F7.8°C 33.3°F0.7°C 61% 2.3 mph E3.7 kmh E 2.3 mph3.7 kmh 29.84 in1010.5 mb - 0.00 in0.0 mm 0.00 in0.0 mm
05:50 AM 46.9°F8.3°C 33.7°F0.9°C 60% 2.3 mph ENE3.7 kmh ENE 2.3 mph3.7 kmh 29.84 in1010.5 mb - 0.00 in0.0 mm 0.00 in0.0 mm
05:55 AM 47.6°F8.7°C 34.8°F1.6°C 61% 2.3 mph ESE3.7 kmh ESE 3.5 mph5.6 kmh 29.84 in1010.5 mb - 0.00 in0.0 mm 0.00 in0.0 mm
06:00 AM 47.8°F8.8°C 34.5°F1.4°C 60% 2.3 mph ESE3.7 kmh ESE 3.5 mph5.6 kmh 29.85 in1010.8 mb - 0.00 in0.0 mm 0.00 in0.0 mm
06:10 AM 48.2°F9.0°C 35.0°F1.7°C 60% 2.3 mph E3.7 kmh E 3.5 mph5.6 kmh 29.85 in1010.8 mb - 0.00 in0.0 mm 0.00 in0.0 mm
06:15 AM 48.4°F9.1°C 35.1°F1.7°C 60% 3.5 mph E5.6 kmh E 2.3 mph3.7 kmh 29.86 in1011.2 mb - 0.00 in0.0 mm 0.00 in0.0 mm
06:20 AM 48.6°F9.2°C 34.9°F1.6°C 59% 2.3 mph ENE3.7 kmh ENE 2.3 mph3.7 kmh 29.86 in1011.2 mb - 0.00 in0.0 mm 0.00 in0.0 mm
06:25 AM 48.6°F9.2°C 34.9°F1.6°C 59% 2.3 mph E3.7 kmh E 2.3 mph3.7 kmh 29.86 in1011.2 mb - 0.00 in0.0 mm 0.00 in0.0 mm
06:30 AM 48.6°F9.2°C 34.9°F1.6°C 59% 2.3 mph ENE3.7 kmh ENE 3.5 mph5.6 kmh 29.86 in1011.2 mb - 0.00 in0.0 mm 0.00 in0.0 mm
06:35 AM 48.7°F9.3°C 35.0°F1.7°C 59% 1.2 mph ESE1.9 kmh ESE 2.3 mph3.7 kmh 29.86 in1011.2 mb - 0.00 in0.0 mm 0.00 in0.0 mm
06:40 AM 48.9°F9.4°C 35.2°F1.8°C 59% 1.2 mph E1.9 kmh E 2.3 mph3.7 kmh 29.86 in1011.2 mb - 0.00 in0.0 mm 0.00 in0.0 mm
06:45 AM 49.1°F9.5°C 35.4°F1.9°C 59% 1.2 mph E1.9 kmh E 2.3 mph3.7 kmh 29.87 in1011.5 mb - 0.00 in0.0 mm 0.00 in0.0 mm
06:50 AM 49.3°F9.6°C 35.5°F1.9°C 59% 2.3 mph E3.7 kmh E 2.3 mph3.7 kmh 29.87 in1011.5 mb - 0.00 in0.0 mm 0.00 in0.0 mm
06:55 AM 49.7°F9.8°C 35.5°F1.9°C 58% 2.3 mph E3.7 kmh E 2.3 mph3.7 kmh 29.87 in1011.5 mb - 0.00 in0.0 mm 0.00 in0.0 mm
07:00 AM 50.2°F10.1°C 36.0°F2.2°C 58% 2.3 mph ESE3.7 kmh ESE 3.5 mph5.6 kmh 29.87 in1011.5 mb - 0.00 in0.0 mm 0.00 in0.0 mm
07:10 AM 51.1°F10.6°C 36.8°F2.7°C 58% 2.3 mph SE3.7 kmh SE 3.5 mph5.6 kmh 29.87 in1011.5 mb - 0.00 in0.0 mm 0.00 in0.0 mm
07:15 AM 51.6°F10.9°C 37.3°F2.9°C 58% 3.5 mph ESE5.6 kmh ESE 4.6 mph7.4 kmh 29.87 in1011.5 mb - 0.00 in0.0 mm 0.00 in0.0 mm
07:20 AM 52.1°F11.2°C 37.3°F2.9°C 57% 3.5 mph E5.6 kmh E 4.6 mph7.4 kmh 29.87 in1011.5 mb - 0.00 in0.0 mm 0.00 in0.0 mm
07:25 AM 52.6°F11.4°C 37.8°F3.2°C 57% 3.5 mph E5.6 kmh E 3.5 mph5.6 kmh 29.87 in1011.5 mb - 0.00 in0.0 mm 0.00 in0.0 mm
07:30 AM 53.1°F11.7°C 38.3°F3.5°C 57% 3.5 mph ESE5.6 kmh ESE 3.5 mph5.6 kmh 29.87 in1011.5 mb - 0.00 in0.0 mm 0.00 in0.0 mm
07:35 AM 53.8°F12.1°C 38.4°F3.6°C 56% 3.5 mph E5.6 kmh E 5.8 mph9.3 kmh 29.87 in1011.5 mb - 0.00 in0.0 mm 0.00 in0.0 mm
07:40 AM 54.3°F12.4°C 38.5°F3.6°C 55% 3.5 mph E5.6 kmh E 3.5 mph5.6 kmh 29.87 in1011.5 mb - 0.00 in0.0 mm 0.00 in0.0 mm
07:45 AM 54.9°F12.7°C 39.0°F3.9°C 55% 3.5 mph ESE5.6 kmh ESE 3.5 mph5.6 kmh 29.87 in1011.5 mb - 0.00 in0.0 mm 0.00 in0.0 mm
07:50 AM 55.4°F13.0°C 39.5°F4.2°C 55% 3.5 mph ESE5.6 kmh ESE 3.5 mph5.6 kmh 29.87 in1011.5 mb - 0.00 in0.0 mm 0.00 in0.0 mm
07:55 AM 56.1°F13.4°C 40.2°F4.6°C 55% 3.5 mph SSE5.6 kmh SSE 3.5 mph5.6 kmh 29.87 in1011.5 mb - 0.00 in0.0 mm 0.00 in0.0 mm
08:00 AM 56.7°F13.7°C 40.7°F4.8°C 55% 4.6 mph SSE7.4 kmh SSE 6.9 mph11.1 kmh 29.88 in1011.9 mb - 0.00 in0.0 mm 0.00 in0.0 mm
08:10 AM 57.9°F14.4°C 41.4°F5.2°C 54% 6.9 mph E11.1 kmh E 6.9 mph11.1 kmh 29.88 in1011.9 mb - 0.00 in0.0 mm 0.00 in0.0 mm
08:15 AM 58.3°F14.6°C 41.7°F5.4°C 54% 5.8 mph ESE9.3 kmh ESE 6.9 mph11.1 kmh 29.88 in1011.9 mb - 0.00 in0.0 mm 0.00 in0.0 mm
08:20 AM 58.6°F14.8°C 42.0°F5.6°C 54% 6.9 mph S11.1 kmh S 5.8 mph9.3 kmh 29.88 in1011.9 mb - 0.00 in0.0 mm 0.00 in0.0 mm
08:25 AM 59.1°F15.1°C 42.0°F5.6°C 53% 5.8 mph ESE9.3 kmh ESE 10.4 mph16.7 kmh 29.88 in1011.9 mb - 0.00 in0.0 mm 0.00 in0.0 mm
08:30 AM 59.4°F15.2°C 41.7°F5.4°C 52% 6.9 mph ESE11.1 kmh ESE 9.2 mph14.8 kmh 29.88 in1011.9 mb - 0.00 in0.0 mm 0.00 in0.0 mm
08:35 AM 59.7°F15.4°C 42.1°F5.6°C 52% 5.8 mph S9.3 kmh S 10.4 mph16.7 kmh 29.88 in1011.9 mb - 0.00 in0.0 mm 0.00 in0.0 mm
08:40 AM 60.4°F15.8°C 42.7°F5.9°C 52% 5.8 mph SE9.3 kmh SE 12.7 mph20.4 kmh 29.88 in1011.9 mb - 0.00 in0.0 mm 0.00 in0.0 mm
08:45 AM 60.8°F16.0°C 43.1°F6.2°C 52% 5.8 mph SE9.3 kmh SE 9.2 mph14.8 kmh 29.88 in1011.9 mb - 0.00 in0.0 mm 0.00 in0.0 mm
08:50 AM 61.2°F16.2°C 43.4°F6.3°C 52% 8.1 mph SSE13.0 kmh SSE 10.4 mph16.7 kmh 29.88 in1011.9 mb - 0.00 in0.0 mm 0.00 in0.0 mm
08:55 AM 61.6°F16.4°C 43.3°F6.3°C 51% 4.6 mph SE7.4 kmh SE 9.2 mph14.8 kmh 29.88 in1011.9 mb - 0.00 in0.0 mm 0.00 in0.0 mm
09:00 AM 62.3°F16.8°C 43.9°F6.6°C 51% 5.8 mph SE9.3 kmh SE 8.1 mph13.0 kmh 29.88 in1011.9 mb - 0.00 in0.0 mm 0.00 in0.0 mm
09:10 AM 63.3°F17.4°C 44.4°F6.9°C 50% 6.9 mph SE11.1 kmh SE 12.7 mph20.4 kmh 29.88 in1011.9 mb - 0.00 in0.0 mm 0.00 in0.0 mm
09:15 AM 63.7°F17.6°C 44.1°F6.7°C 49% 6.9 mph E11.1 kmh E 9.2 mph14.8 kmh 29.88 in1011.9 mb - 0.00 in0.0 mm 0.00 in0.0 mm
09:20 AM 64.2°F17.9°C 44.6°F7.0°C 49% 8.1 mph ENE13.0 kmh ENE 12.7 mph20.4 kmh 29.88 in1011.9 mb - 0.00 in0.0 mm 0.00 in0.0 mm
09:25 AM 64.6°F18.1°C 45.0°F7.2°C 49% 6.9 mph ESE11.1 kmh ESE 8.1 mph13.0 kmh 29.88 in1011.9 mb - 0.00 in0.0 mm 0.00 in0.0 mm
09:30 AM 64.8°F18.2°C 44.6°F7.0°C 48% 8.1 mph ESE13.0 kmh ESE 11.5 mph18.5 kmh 29.87 in1011.5 mb - 0.00 in0.0 mm 0.00 in0.0 mm
09:35 AM 65.3°F18.5°C 45.1°F7.3°C 48% 9.2 mph ENE14.8 kmh ENE 10.4 mph16.7 kmh 29.87 in1011.5 mb - 0.00 in0.0 mm 0.00 in0.0 mm
09:40 AM 65.5°F18.6°C 44.7°F7.1°C 47% 6.9 mph S11.1 kmh S 8.1 mph13.0 kmh 29.87 in1011.5 mb - 0.00 in0.0 mm 0.00 in0.0 mm
09:45 AM 66.0°F18.9°C 45.2°F7.3°C 47% 8.1 mph SE13.0 kmh SE 8.1 mph13.0 kmh 29.88 in1011.9 mb - 0.00 in0.0 mm 0.00 in0.0 mm
09:50 AM 66.3°F19.1°C 44.9°F7.2°C 46% 11.5 mph SE18.5 kmh SE 8.1 mph13.0 kmh 29.88 in1011.9 mb - 0.00 in0.0 mm 0.00 in0.0 mm
09:55 AM 66.8°F19.3°C 45.3°F7.4°C 46% 6.9 mph SE11.1 kmh SE 10.4 mph16.7 kmh 29.88 in1011.9 mb - 0.00 in0.0 mm 0.00 in0.0 mm
10:00 AM 67.1°F19.5°C 45.0°F7.2°C 45% 5.8 mph ESE9.3 kmh ESE 6.9 mph11.1 kmh 29.88 in1011.9 mb - 0.00 in0.0 mm 0.00 in0.0 mm
10:10 AM 68.0°F20.0°C 45.9°F7.7°C 45% 6.9 mph ESE11.1 kmh ESE 12.7 mph20.4 kmh 29.88 in1011.9 mb - 0.00 in0.0 mm 0.00 in0.0 mm
10:15 AM 68.0°F20.0°C 45.2°F7.3°C 44% 9.2 mph S14.8 kmh S 11.5 mph18.5 kmh 29.88 in1011.9 mb - 0.00 in0.0 mm 0.00 in0.0 mm
10:20 AM 68.5°F20.3°C 45.7°F7.6°C 44% 6.9 mph ESE11.1 kmh ESE 8.1 mph13.0 kmh 29.88 in1011.9 mb - 0.00 in0.0 mm 0.00 in0.0 mm
10:25 AM 68.5°F20.3°C 45.8°F7.7°C 44% 9.2 mph SE14.8 kmh SE 10.4 mph16.7 kmh 29.88 in1011.9 mb - 0.00 in0.0 mm 0.00 in0.0 mm
10:30 AM 68.7°F20.4°C 45.3°F7.4°C 43% 9.2 mph SE14.8 kmh SE 9.2 mph14.8 kmh 29.88 in1011.9 mb - 0.00 in0.0 mm 0.00 in0.0 mm
10:35 AM 69.1°F20.6°C 45.6°F7.6°C 43% 8.1 mph S13.0 kmh S 11.5 mph18.5 kmh 29.88 in1011.9 mb - 0.00 in0.0 mm 0.00 in0.0 mm
10:40 AM 69.6°F20.9°C 46.1°F7.8°C 43% 4.6 mph ESE7.4 kmh ESE 6.9 mph11.1 kmh 29.88 in1011.9 mb - 0.00 in0.0 mm 0.00 in0.0 mm
10:45 AM 69.6°F20.9°C 45.5°F7.5°C 42% 6.9 mph SE11.1 kmh SE 8.1 mph13.0 kmh 29.88 in1011.9 mb - 0.00 in0.0 mm 0.00 in0.0 mm
10:50 AM 69.4°F20.8°C 44.7°F7.1°C 41% 8.1 mph E13.0 kmh E 11.5 mph18.5 kmh 29.88 in1011.9 mb - 0.00 in0.0 mm 0.00 in0.0 mm
10:55 AM 69.9°F21.1°C 45.1°F7.3°C 41% 6.9 mph SE11.1 kmh SE 11.5 mph18.5 kmh 29.88 in1011.9 mb - 0.00 in0.0 mm 0.00 in0.0 mm
11:00 AM 70.2°F21.2°C 45.4°F7.4°C 41% 9.2 mph SE14.8 kmh SE 11.5 mph18.5 kmh 29.87 in1011.5 mb - 0.00 in0.0 mm 0.00 in0.0 mm
11:10 AM 70.7°F21.5°C 45.8°F7.7°C 41% 6.9 mph SSE11.1 kmh SSE 10.4 mph16.7 kmh 29.87 in1011.5 mb - 0.00 in0.0 mm 0.00 in0.0 mm
11:15 AM 70.9°F21.6°C 45.3°F7.4°C 40% 9.2 mph SE14.8 kmh SE 9.2 mph14.8 kmh 29.88 in1011.9 mb - 0.00 in0.0 mm 0.00 in0.0 mm
11:20 AM 70.9°F21.6°C 45.3°F7.4°C 40% 6.9 mph S11.1 kmh S 6.9 mph11.1 kmh 29.88 in1011.9 mb - 0.00 in0.0 mm 0.00 in0.0 mm
11:25 AM 71.1°F21.7°C 45.5°F7.5°C 40% 6.9 mph SE11.1 kmh SE 11.5 mph18.5 kmh 29.88 in1011.9 mb - 0.00 in0.0 mm 0.00 in0.0 mm
11:30 AM 70.9°F21.6°C 45.3°F7.4°C 40% 9.2 mph SSE14.8 kmh SSE 12.7 mph20.4 kmh 29.87 in1011.5 mb - 0.00 in0.0 mm 0.00 in0.0 mm
11:35 AM 71.4°F21.9°C 45.8°F7.7°C 40% 5.8 mph S9.3 kmh S 8.1 mph13.0 kmh 29.87 in1011.5 mb - 0.00 in0.0 mm 0.00 in0.0 mm
11:40 AM 71.6°F22.0°C 46.0°F7.8°C 40% 6.9 mph S11.1 kmh S 10.4 mph16.7 kmh 29.87 in1011.5 mb - 0.00 in0.0 mm 0.00 in0.0 mm
11:45 AM 71.9°F22.2°C 46.3°F7.9°C 40% 5.8 mph ESE9.3 kmh ESE 5.8 mph9.3 kmh 29.86 in1011.2 mb - 0.00 in0.0 mm 0.00 in0.0 mm
11:50 AM 72.0°F22.2°C 45.7°F7.6°C 39% 8.1 mph ESE13.0 kmh ESE 5.8 mph9.3 kmh 29.86 in1011.2 mb - 0.00 in0.0 mm 0.00 in0.0 mm
11:55 AM 71.6°F22.0°C 45.3°F7.4°C 39% 8.1 mph ESE13.0 kmh ESE 10.4 mph16.7 kmh 29.86 in1011.2 mb - 0.00 in0.0 mm 0.00 in0.0 mm
12:00 PM 72.0°F22.2°C 45.6°F7.6°C 39% 6.9 mph E11.1 kmh E 9.2 mph14.8 kmh 29.87 in1011.5 mb - 0.00 in0.0 mm 0.00 in0.0 mm
12:10 PM 72.1°F22.3°C 45.8°F7.7°C 39% 9.2 mph ESE14.8 kmh ESE 11.5 mph18.5 kmh 29.87 in1011.5 mb - 0.00 in0.0 mm 0.00 in0.0 mm
12:15 PM 72.1°F22.3°C 45.1°F7.3°C 38% 5.8 mph S9.3 kmh S 8.1 mph13.0 kmh 29.86 in1011.2 mb - 0.00 in0.0 mm 0.00 in0.0 mm
12:20 PM 72.3°F22.4°C 45.3°F7.4°C 38% 6.9 mph S11.1 kmh S 9.2 mph14.8 kmh 29.86 in1011.2 mb - 0.00 in0.0 mm 0.00 in0.0 mm
12:25 PM 72.4°F22.4°C 45.3°F7.4°C 38% 6.9 mph S11.1 kmh S 3.5 mph5.6 kmh 29.86 in1011.2 mb - 0.00 in0.0 mm 0.00 in0.0 mm
12:30 PM 73.0°F22.8°C 45.9°F7.7°C 38% 4.6 mph S7.4 kmh S 5.8 mph9.3 kmh 29.85 in1010.8 mb - 0.00 in0.0 mm 0.00 in0.0 mm
12:35 PM 73.0°F22.8°C 45.9°F7.7°C 38% 5.8 mph SE9.3 kmh SE 5.8 mph9.3 kmh 29.85 in1010.8 mb - 0.00 in0.0 mm 0.00 in0.0 mm
12:40 PM 72.9°F22.7°C 45.8°F7.7°C 38% 6.9 mph S11.1 kmh S 10.4 mph16.7 kmh 29.85 in1010.8 mb - 0.00 in0.0 mm 0.00 in0.0 mm
12:45 PM 73.0°F22.8°C 45.9°F7.7°C 38% 6.9 mph S11.1 kmh S 8.1 mph13.0 kmh 29.85 in1010.8 mb - 0.00 in0.0 mm 0.00 in0.0 mm
12:50 PM 72.8°F22.7°C 45.0°F7.2°C 37% 5.8 mph SSW9.3 kmh SSW 5.8 mph9.3 kmh 29.85 in1010.8 mb - 0.00 in0.0 mm 0.00 in0.0 mm
12:55 PM 72.9°F22.7°C 45.1°F7.3°C 37% 6.9 mph SSE11.1 kmh SSE 9.2 mph14.8 kmh 29.85 in1010.8 mb - 0.00 in0.0 mm 0.00 in0.0 mm
01:00 PM 73.0°F22.8°C 45.2°F7.3°C 37% 4.6 mph SSE7.4 kmh SSE 6.9 mph11.1 kmh 29.85 in1010.8 mb - 0.00 in0.0 mm 0.00 in0.0 mm
01:10 PM 73.0°F22.8°C 45.2°F7.3°C 37% 5.8 mph SSE9.3 kmh SSE 8.1 mph13.0 kmh 29.85 in1010.8 mb - 0.00 in0.0 mm 0.00 in0.0 mm
01:15 PM 73.2°F22.9°C 45.3°F7.4°C 37% 4.6 mph SE7.4 kmh SE 8.1 mph13.0 kmh 29.85 in1010.8 mb - 0.00 in0.0 mm 0.00 in0.0 mm
01:20 PM 73.7°F23.2°C 45.0°F7.2°C 36% 6.9 mph SE11.1 kmh SE 9.2 mph14.8 kmh 29.85 in1010.8 mb - 0.00 in0.0 mm 0.00 in0.0 mm
01:25 PM 73.6°F23.1°C 45.0°F7.2°C 36% 4.6 mph ESE7.4 kmh ESE 6.9 mph11.1 kmh 29.85 in1010.8 mb - 0.00 in0.0 mm 0.00 in0.0 mm
01:30 PM 73.6°F23.1°C 45.0°F7.2°C 36% 5.8 mph S9.3 kmh S 6.9 mph11.1 kmh 29.84 in1010.5 mb - 0.00 in0.0 mm 0.00 in0.0 mm
01:35 PM 74.1°F23.4°C 44.7°F7.1°C 35% 5.8 mph S9.3 kmh S 8.1 mph13.0 kmh 29.84 in1010.5 mb - 0.00 in0.0 mm 0.00 in0.0 mm
01:40 PM 74.1°F23.4°C 44.7°F7.1°C 35% 5.8 mph S9.3 kmh S 5.8 mph9.3 kmh 29.84 in1010.5 mb - 0.00 in0.0 mm 0.00 in0.0 mm
01:45 PM 73.9°F23.3°C 44.5°F6.9°C 35% 4.6 mph SSE7.4 kmh SSE 5.8 mph9.3 kmh 29.84 in1010.5 mb - 0.00 in0.0 mm 0.00 in0.0 mm
01:50 PM 73.9°F23.3°C 44.5°F6.9°C 35% 8.1 mph SSE13.0 kmh SSE 13.8 mph22.2 kmh 29.84 in1010.5 mb - 0.00 in0.0 mm 0.00 in0.0 mm
01:55 PM 74.0°F23.3°C 44.6°F7.0°C 35% 4.6 mph SE7.4 kmh SE 6.9 mph11.1 kmh 29.84 in1010.5 mb - 0.00 in0.0 mm 0.00 in0.0 mm
02:00 PM 74.3°F23.5°C 44.9°F7.2°C 35% 2.3 mph SE3.7 kmh SE 3.5 mph5.6 kmh 29.84 in1010.5 mb - 0.00 in0.0 mm 0.00 in0.0 mm
02:10 PM 74.1°F23.4°C 44.7°F7.1°C 35% 4.6 mph SE7.4 kmh SE 5.8 mph9.3 kmh 29.84 in1010.5 mb - 0.00 in0.0 mm 0.00 in0.0 mm
02:15 PM 74.3°F23.5°C 44.9°F7.2°C 35% 6.9 mph SE11.1 kmh SE 8.1 mph13.0 kmh 29.84 in1010.5 mb - 0.00 in0.0 mm 0.00 in0.0 mm
02:20 PM 74.4°F23.6°C 44.2°F6.8°C 34% 2.3 mph SW3.7 kmh SW 2.3 mph3.7 kmh 29.84 in1010.5 mb - 0.00 in0.0 mm 0.00 in0.0 mm
02:25 PM 73.9°F23.3°C 43.8°F6.6°C 34% 4.6 mph ESE7.4 kmh ESE 4.6 mph7.4 kmh 29.84 in1010.5 mb - 0.00 in0.0 mm 0.00 in0.0 mm
02:30 PM 73.9°F23.3°C 43.8°F6.6°C 34% 3.5 mph SE5.6 kmh SE 3.5 mph5.6 kmh 29.83 in1010.2 mb - 0.00 in0.0 mm 0.00 in0.0 mm
02:35 PM 73.9°F23.3°C 43.8°F6.6°C 34% 5.8 mph SE9.3 kmh SE 4.6 mph7.4 kmh 29.83 in1010.2 mb - 0.00 in0.0 mm 0.00 in0.0 mm
02:40 PM 73.9°F23.3°C 43.8°F6.6°C 34% 3.5 mph SSE5.6 kmh SSE 5.8 mph9.3 kmh 29.83 in1010.2 mb - 0.00 in0.0 mm 0.00 in0.0 mm
02:45 PM 73.8°F23.2°C 43.6°F6.4°C 34% 4.6 mph SSE7.4 kmh SSE 4.6 mph7.4 kmh 29.83 in1010.2 mb - 0.00 in0.0 mm 0.00 in0.0 mm
02:50 PM 73.8°F23.2°C 42.9°F6.1°C 33% 2.3 mph SE3.7 kmh SE 3.5 mph5.6 kmh 29.83 in1010.2 mb - 0.00 in0.0 mm 0.00 in0.0 mm
02:55 PM 73.6°F23.1°C 43.5°F6.4°C 34% 4.6 mph SSE7.4 kmh SSE 6.9 mph11.1 kmh 29.83 in1010.2 mb - 0.00 in0.0 mm 0.00 in0.0 mm
03:00 PM 73.6°F23.1°C 42.7°F5.9°C 33% 3.5 mph SE5.6 kmh SE 5.8 mph9.3 kmh 29.83 in1010.2 mb - 0.00 in0.0 mm 0.00 in0.0 mm
03:10 PM 73.4°F23.0°C 43.3°F6.3°C 34% 2.3 mph S3.7 kmh S 3.5 mph5.6 kmh 29.83 in1010.2 mb - 0.00 in0.0 mm 0.00 in0.0 mm
03:15 PM 73.0°F22.8°C 43.0°F6.1°C 34% 4.6 mph SE7.4 kmh SE 8.1 mph13.0 kmh 29.83 in1010.2 mb - 0.00 in0.0 mm 0.00 in0.0 mm
03:20 PM 72.7°F22.6°C 42.7°F5.9°C 34% 4.6 mph SSE7.4 kmh SSE 5.8 mph9.3 kmh 29.83 in1010.2 mb - 0.00 in0.0 mm 0.00 in0.0 mm
03:25 PM 72.3°F22.4°C 42.4°F5.8°C 34% 4.6 mph S7.4 kmh S 6.9 mph11.1 kmh 29.83 in1010.2 mb - 0.00 in0.0 mm 0.00 in0.0 mm
03:30 PM 72.1°F22.3°C 42.2°F5.7°C 34% 2.3 mph S3.7 kmh S 3.5 mph5.6 kmh 29.82 in1009.8 mb - 0.00 in0.0 mm 0.00 in0.0 mm
03:35 PM 71.6°F22.0°C 42.5°F5.8°C 35% 3.5 mph SE5.6 kmh SE 3.5 mph5.6 kmh 29.82 in1009.8 mb - 0.00 in0.0 mm 0.00 in0.0 mm
03:40 PM 71.3°F21.8°C 42.2°F5.7°C 35% 2.3 mph ESE3.7 kmh ESE 3.5 mph5.6 kmh 29.82 in1009.8 mb - 0.00 in0.0 mm 0.00 in0.0 mm
03:45 PM 71.0°F21.7°C 41.9°F5.5°C 35% 2.3 mph SE3.7 kmh SE 2.3 mph3.7 kmh 29.83 in1010.2 mb - 0.00 in0.0 mm 0.00 in0.0 mm
03:50 PM 70.7°F21.5°C 41.7°F5.4°C 35% 1.2 mph ESE1.9 kmh ESE 1.2 mph1.9 kmh 29.83 in1010.2 mb - 0.00 in0.0 mm 0.00 in0.0 mm
03:55 PM 70.2°F21.2°C 41.9°F5.5°C 36% 1.2 mph SE1.9 kmh SE 2.3 mph3.7 kmh 29.83 in1010.2 mb - 0.00 in0.0 mm 0.00 in0.0 mm
04:00 PM 69.6°F20.9°C 42.2°F5.7°C 37% 1.2 mph ESE1.9 kmh ESE 1.2 mph1.9 kmh 29.83 in1010.2 mb - 0.00 in0.0 mm 0.00 in0.0 mm
04:10 PM 68.8°F20.4°C 42.2°F5.7°C 38% Calm Calm 2.3 mph3.7 kmh 29.83 in1010.2 mb - 0.00 in0.0 mm 0.00 in0.0 mm
04:15 PM 68.4°F20.2°C 42.5°F5.8°C 39% Calm Calm -- 29.83 in1010.2 mb - 0.00 in0.0 mm 0.00 in0.0 mm
04:20 PM 68.0°F20.0°C 42.7°F5.9°C 40% Calm Calm -- 29.83 in1010.2 mb - 0.00 in0.0 mm 0.00 in0.0 mm
04:25 PM 67.1°F19.5°C 42.6°F5.9°C 41% Calm Calm -- 29.83 in1010.2 mb - 0.00 in0.0 mm 0.00 in0.0 mm
04:30 PM 66.6°F19.2°C 42.1°F5.6°C 41% Calm Calm -- 29.83 in1010.2 mb - 0.00 in0.0 mm 0.00 in0.0 mm
04:35 PM 65.8°F18.8°C 42.1°F5.6°C 42% Calm Calm -- 29.83 in1010.2 mb - 0.00 in0.0 mm 0.00 in0.0 mm
04:40 PM 65.2°F18.4°C 42.1°F5.6°C 43% Calm Calm -- 29.83 in1010.2 mb - 0.00 in0.0 mm 0.00 in0.0 mm
04:45 PM 64.4°F18.0°C 41.4°F5.2°C 43% Calm Calm -- 29.83 in1010.2 mb - 0.00 in0.0 mm 0.00 in0.0 mm
04:50 PM 64.0°F17.8°C 41.6°F5.3°C 44% Calm Calm -- 29.83 in1010.2 mb - 0.00 in0.0 mm 0.00 in0.0 mm
04:55 PM 63.0°F17.2°C 40.7°F4.8°C 44% Calm Calm -- 29.83 in1010.2 mb - 0.00 in0.0 mm 0.00 in0.0 mm
05:00 PM 62.4°F16.9°C 41.4°F5.2°C 46% Calm Calm -- 29.83 in1010.2 mb - 0.00 in0.0 mm 0.00 in0.0 mm
05:10 PM 61.0°F16.1°C 40.6°F4.8°C 47% Calm Calm -- 29.83 in1010.2 mb - 0.00 in0.0 mm 0.00 in0.0 mm
05:15 PM 60.6°F15.9°C 40.8°F4.9°C 48% Calm Calm -- 29.83 in1010.2 mb - 0.00 in0.0 mm 0.00 in0.0 mm
05:20 PM 60.2°F15.7°C 40.5°F4.7°C 48% Calm Calm -- 29.83 in1010.2 mb - 0.00 in0.0 mm 0.00 in0.0 mm
05:25 PM 59.9°F15.5°C 40.7°F4.8°C 49% Calm Calm -- 29.83 in1010.2 mb - 0.00 in0.0 mm 0.00 in0.0 mm
05:30 PM 59.2°F15.1°C 40.5°F4.7°C 50% Calm Calm -- 29.83 in1010.2 mb - 0.00 in0.0 mm 0.00 in0.0 mm
05:35 PM 58.3°F14.6°C 40.2°F4.6°C 51% Calm Calm -- 29.83 in1010.2 mb - 0.00 in0.0 mm 0.00 in0.0 mm
05:40 PM 58.3°F14.6°C 40.7°F4.8°C 52% Calm Calm -- 29.83 in1010.2 mb - 0.00 in0.0 mm 0.00 in0.0 mm
05:45 PM 57.7°F14.3°C 40.2°F4.6°C 52% Calm Calm -- 29.84 in1010.5 mb - 0.00 in0.0 mm 0.00 in0.0 mm
05:50 PM 57.6°F14.2°C 40.5°F4.7°C 53% Calm Calm -- 29.84 in1010.5 mb - 0.00 in0.0 mm 0.00 in0.0 mm
06:00 PM 56.8°F13.8°C 40.4°F4.7°C 54% Calm Calm -- 29.84 in1010.5 mb - 0.00 in0.0 mm 0.00 in0.0 mm
07:50 PM 52.5°F11.4°C 39.9°F4.4°C 62% Calm Calm -- 29.84 in1010.5 mb - 0.00 in0.0 mm 0.00 in0.0 mm
07:55 PM 52.2°F11.2°C 39.9°F4.4°C 63% Calm Calm -- 29.84 in1010.5 mb - 0.00 in0.0 mm 0.00 in0.0 mm
08:00 PM 51.8°F11.0°C 39.2°F4.0°C 62% Calm Calm -- 29.84 in1010.5 mb - 0.00 in0.0 mm 0.00 in0.0 mm
08:10 PM 51.4°F10.8°C 38.8°F3.8°C 62% Calm Calm -- 29.84 in1010.5 mb - 0.00 in0.0 mm 0.00 in0.0 mm
08:15 PM 51.3°F10.7°C 39.1°F3.9°C 63% Calm Calm -- 29.85 in1010.8 mb - 0.00 in0.0 mm 0.00 in0.0 mm
08:20 PM 51.1°F10.6°C 38.9°F3.8°C 63% Calm Calm -- 29.85 in1010.8 mb - 0.00 in0.0 mm 0.00 in0.0 mm
08:25 PM 50.9°F10.5°C 38.7°F3.7°C 63% Calm Calm -- 29.85 in1010.8 mb - 0.00 in0.0 mm 0.00 in0.0 mm
08:30 PM 50.7°F10.4°C 38.6°F3.7°C 63% Calm Calm 1.2 mph1.9 kmh 29.84 in1010.5 mb - 0.00 in0.0 mm 0.00 in0.0 mm
08:35 PM 50.6°F10.3°C 38.4°F3.6°C 63% Calm Calm -- 29.84 in1010.5 mb - 0.00 in0.0 mm 0.00 in0.0 mm
08:40 PM 50.5°F10.3°C 38.3°F3.5°C 63% Calm Calm -- 29.84 in1010.5 mb - 0.00 in0.0 mm 0.00 in0.0 mm
08:45 PM 50.8°F10.4°C 38.2°F3.4°C 62% Calm Calm 2.3 mph3.7 kmh 29.84 in1010.5 mb - 0.00 in0.0 mm 0.00 in0.0 mm
08:50 PM 51.3°F10.7°C 38.7°F3.7°C 62% Calm Calm 1.2 mph1.9 kmh 29.84 in1010.5 mb - 0.00 in0.0 mm 0.00 in0.0 mm
08:55 PM 51.3°F10.7°C 38.7°F3.7°C 62% Calm Calm -- 29.84 in1010.5 mb - 0.00 in0.0 mm 0.00 in0.0 mm
09:00 PM 51.6°F10.9°C 38.6°F3.7°C 61% 1.2 mph ESE1.9 kmh ESE 2.3 mph3.7 kmh 29.85 in1010.8 mb - 0.00 in0.0 mm 0.00 in0.0 mm
09:10 PM 52.2°F11.2°C 38.8°F3.8°C 60% 1.2 mph E1.9 kmh E 2.3 mph3.7 kmh 29.85 in1010.8 mb - 0.00 in0.0 mm 0.00 in0.0 mm
09:15 PM 52.4°F11.3°C 38.5°F3.6°C 59% 1.2 mph ENE1.9 kmh ENE 2.3 mph3.7 kmh 29.85 in1010.8 mb - 0.00 in0.0 mm 0.00 in0.0 mm
09:20 PM 52.5°F11.4°C 38.6°F3.7°C 59% 2.3 mph SE3.7 kmh SE 2.3 mph3.7 kmh 29.85 in1010.8 mb - 0.00 in0.0 mm 0.00 in0.0 mm
09:25 PM 52.7°F11.5°C 38.8°F3.8°C 59% 1.2 mph ESE1.9 kmh ESE 2.3 mph3.7 kmh 29.85 in1010.8 mb - 0.00 in0.0 mm 0.00 in0.0 mm
09:30 PM 52.9°F11.6°C 38.5°F3.6°C 58% 2.3 mph SE3.7 kmh SE 2.3 mph3.7 kmh 29.85 in1010.8 mb - 0.00 in0.0 mm 0.00 in0.0 mm
09:35 PM 52.5°F11.4°C 38.2°F3.4°C 58% 2.3 mph ESE3.7 kmh ESE 3.5 mph5.6 kmh 29.85 in1010.8 mb - 0.00 in0.0 mm 0.00 in0.0 mm
09:40 PM 52.8°F11.6°C 38.4°F3.6°C 58% 1.2 mph ESE1.9 kmh ESE 2.3 mph3.7 kmh 29.85 in1010.8 mb - 0.00 in0.0 mm 0.00 in0.0 mm
09:45 PM 52.7°F11.5°C 38.3°F3.5°C 58% 2.3 mph ESE3.7 kmh ESE 3.5 mph5.6 kmh 29.85 in1010.8 mb - 0.00 in0.0 mm 0.00 in0.0 mm
09:50 PM 52.3°F11.3°C 38.0°F3.3°C 58% Calm Calm -- 29.85 in1010.8 mb - 0.00 in0.0 mm 0.00 in0.0 mm
09:55 PM 52.0°F11.1°C 37.7°F3.2°C 58% Calm Calm -- 29.85 in1010.8 mb - 0.00 in0.0 mm 0.00 in0.0 mm
10:00 PM 51.6°F10.9°C 38.2°F3.4°C 60% Calm Calm 1.2 mph1.9 kmh 29.85 in1010.8 mb - 0.00 in0.0 mm 0.00 in0.0 mm
10:10 PM 50.6°F10.3°C 37.2°F2.9°C 60% Calm Calm -- 29.85 in1010.8 mb - 0.00 in0.0 mm 0.00 in0.0 mm
10:15 PM 50.2°F10.1°C 36.8°F2.7°C 60% Calm Calm -- 29.84 in1010.5 mb - 0.00 in0.0 mm 0.00 in0.0 mm
10:20 PM 49.8°F9.9°C 36.9°F2.7°C 61% Calm Calm -- 29.84 in1010.5 mb - 0.00 in0.0 mm 0.00 in0.0 mm
10:25 PM 49.5°F9.7°C 36.6°F2.6°C 61% Calm Calm -- 29.84 in1010.5 mb - 0.00 in0.0 mm 0.00 in0.0 mm
10:30 PM 49.1°F9.5°C 36.6°F2.6°C 62% Calm Calm -- 29.84 in1010.5 mb - 0.00 in0.0 mm 0.00 in0.0 mm
10:35 PM 48.8°F9.3°C 36.4°F2.4°C 62% Calm Calm -- 29.84 in1010.5 mb - 0.00 in0.0 mm 0.00 in0.0 mm
10:40 PM 48.6°F9.2°C 36.1°F2.3°C 62% Calm Calm -- 29.84 in1010.5 mb - 0.00 in0.0 mm 0.00 in0.0 mm
10:45 PM 48.4°F9.1°C 36.3°F2.4°C 63% Calm Calm -- 29.85 in1010.8 mb - 0.00 in0.0 mm 0.00 in0.0 mm
10:50 PM 48.0°F8.9°C 36.0°F2.2°C 63% Calm Calm -- 29.85 in1010.8 mb - 0.00 in0.0 mm 0.00 in0.0 mm
10:55 PM 47.3°F8.5°C 35.3°F1.8°C 63% Calm Calm -- 29.85 in1010.8 mb - 0.00 in0.0 mm 0.00 in0.0 mm
11:00 PM 47.1°F8.4°C 35.6°F2.0°C 64% Calm Calm -- 29.85 in1010.8 mb - 0.00 in0.0 mm 0.00 in0.0 mm
11:10 PM 46.6°F8.1°C 35.0°F1.7°C 64% Calm Calm -- 29.85 in1010.8 mb - 0.00 in0.0 mm 0.00 in0.0 mm
11:15 PM 46.2°F7.9°C 34.7°F1.5°C 64% Calm Calm -- 29.85 in1010.8 mb - 0.00 in0.0 mm 0.00 in0.0 mm
11:20 PM 45.9°F7.7°C 34.8°F1.6°C 65% Calm Calm 1.2 mph1.9 kmh 29.85 in1010.8 mb - 0.00 in0.0 mm 0.00 in0.0 mm
11:25 PM 45.7°F7.6°C 34.6°F1.4°C 65% Calm Calm -- 29.85 in1010.8 mb - 0.00 in0.0 mm 0.00 in0.0 mm
11:30 PM 45.5°F7.5°C 34.4°F1.3°C 65% Calm Calm -- 29.85 in1010.8 mb - 0.00 in0.0 mm 0.00 in0.0 mm
11:35 PM 45.4°F7.4°C 34.7°F1.5°C 66% Calm Calm -- 29.85 in1010.8 mb - 0.00 in0.0 mm 0.00 in0.0 mm
11:40 PM 45.1°F7.3°C 34.4°F1.3°C 66% Calm Calm -- 29.85 in1010.8 mb - 0.00 in0.0 mm 0.00 in0.0 mm
11:45 PM 44.8°F7.1°C 34.1°F1.2°C 66% Calm Calm -- 29.84 in1010.5 mb - 0.00 in0.0 mm 0.00 in0.0 mm
11:50 PM 44.8°F7.1°C 34.1°F1.2°C 66% Calm Calm -- 29.84 in1010.5 mb - 0.00 in0.0 mm 0.00 in0.0 mm
11:55 PM 44.6°F7.0°C 33.9°F1.1°C 66% Calm Calm -- 29.84 in1010.5 mb - 0.00 in0.0 mm 0.00 in0.0 mm